sensor_id;sensor_type;location;lat;lon;timestamp;pressure;altitude;pressure_sealevel;temperature;humidity
57779;BME280;43608;49.486;9.640;2023-05-23T00:00:30;98419.53;;;15.70;84.72
57779;BME280;43608;49.486;9.640;2023-05-23T00:01:02;98414.19;;;15.70;84.74
57779;BME280;43608;49.486;9.640;2023-05-23T00:01:36;98419.53;;;15.70;84.61
57779;BME280;43608;49.486;9.640;2023-05-23T00:02:06;98404.66;;;15.62;84.59
57779;BME280;43608;49.486;9.640;2023-05-23T00:02:37;98399.47;;;15.57;84.38
57779;BME280;43608;49.486;9.640;2023-05-23T00:03:08;98411.63;;;15.67;84.76
57779;BME280;43608;49.486;9.640;2023-05-23T00:03:40;98406.41;;;15.63;84.70
57779;BME280;43608;49.486;9.640;2023-05-23T00:04:10;98402.81;;;15.64;84.71
57779;BME280;43608;49.486;9.640;2023-05-23T00:04:46;98404.66;;;15.62;85.06
57779;BME280;43608;49.486;9.640;2023-05-23T00:05:16;98395.94;;;15.55;84.95
57779;BME280;43608;49.486;9.640;2023-05-23T00:05:47;98345.13;;;15.27;84.95
57779;BME280;43608;49.486;9.640;2023-05-23T00:06:20;98408.28;;;15.61;85.08
57779;BME280;43608;49.486;9.640;2023-05-23T00:06:51;98414.41;;;15.63;84.87
57779;BME280;43608;49.486;9.640;2023-05-23T00:07:22;98410.88;;;15.62;84.71
57779;BME280;43608;49.486;9.640;2023-05-23T00:07:53;98416.22;;;15.62;84.96
57779;BME280;43608;49.486;9.640;2023-05-23T00:08:24;98414.47;;;15.61;84.88
57779;BME280;43608;49.486;9.640;2023-05-23T00:08:55;98423.34;;;15.62;85.01
57779;BME280;43608;49.486;9.640;2023-05-23T00:09:25;98390.88;;;15.46;85.14
57779;BME280;43608;49.486;9.640;2023-05-23T00:09:55;98413.63;;;15.59;85.08
57779;BME280;43608;49.486;9.640;2023-05-23T00:10:26;98399.56;;;15.52;85.09
57779;BME280;43608;49.486;9.640;2023-05-23T00:10:56;98425.22;;;15.60;84.79
57779;BME280;43608;49.486;9.640;2023-05-23T00:11:27;98422.50;;;15.61;85.01
57779;BME280;43608;49.486;9.640;2023-05-23T00:11:58;98409.34;;;15.53;84.88
57779;BME280;43608;49.486;9.640;2023-05-23T00:12:29;98381.16;;;15.43;84.83
57779;BME280;43608;49.486;9.640;2023-05-23T00:12:59;98416.22;;;15.62;84.78
57779;BME280;43608;49.486;9.640;2023-05-23T00:13:29;98411.00;;;15.58;84.81
57779;BME280;43608;49.486;9.640;2023-05-23T00:14:02;98423.31;;;15.63;84.76
57779;BME280;43608;49.486;9.640;2023-05-23T00:14:32;98405.88;;;15.51;84.97
57779;BME280;43608;49.486;9.640;2023-05-23T00:15:04;98425.94;;;15.65;84.64
57779;BME280;43608;49.486;9.640;2023-05-23T00:15:39;98408.34;;;15.58;84.50
57779;BME280;43608;49.486;9.640;2023-05-23T00:16:10;98401.38;;;15.52;84.22
57779;BME280;43608;49.486;9.640;2023-05-23T00:16:41;98400.47;;;15.53;84.31
57779;BME280;43608;49.486;9.640;2023-05-23T00:17:13;98410.97;;;15.59;84.30
57779;BME280;43608;49.486;9.640;2023-05-23T00:17:46;98401.25;;;15.57;84.49
57779;BME280;43608;49.486;9.640;2023-05-23T00:18:17;98430.28;;;15.69;84.11
57779;BME280;43608;49.486;9.640;2023-05-23T00:18:48;98429.41;;;15.68;84.05
57779;BME280;43608;49.486;9.640;2023-05-23T00:19:19;98411.91;;;15.58;84.06
57779;BME280;43608;49.486;9.640;2023-05-23T00:19:49;98413.56;;;15.62;84.11
57779;BME280;43608;49.486;9.640;2023-05-23T00:20:20;98404.91;;;15.54;83.81
57779;BME280;43608;49.486;9.640;2023-05-23T00:20:50;98410.09;;;15.59;83.88
57779;BME280;43608;49.486;9.640;2023-05-23T00:21:21;98417.09;;;15.63;83.87
57779;BME280;43608;49.486;9.640;2023-05-23T00:21:52;98412.75;;;15.59;83.94
57779;BME280;43608;49.486;9.640;2023-05-23T00:22:25;98425.91;;;15.66;83.83
57779;BME280;43608;49.486;9.640;2023-05-23T00:22:55;98408.53;;;15.51;84.09
57779;BME280;43608;49.486;9.640;2023-05-23T00:23:29;98407.53;;;15.56;83.91
57779;BME280;43608;49.486;9.640;2023-05-23T00:23:59;98431.25;;;15.66;84.07
57779;BME280;43608;49.486;9.640;2023-05-23T00:24:31;98420.78;;;15.59;83.98
57779;BME280;43608;49.486;9.640;2023-05-23T00:25:01;98430.41;;;15.64;84.10
57779;BME280;43608;49.486;9.640;2023-05-23T00:25:32;98428.66;;;15.63;84.07
57779;BME280;43608;49.486;9.640;2023-05-23T00:26:05;98420.03;;;15.53;83.91
57779;BME280;43608;49.486;9.640;2023-05-23T00:26:36;98404.19;;;15.47;83.81
57779;BME280;43608;49.486;9.640;2023-05-23T00:27:06;98430.59;;;15.58;84.01
57779;BME280;43608;49.486;9.640;2023-05-23T00:27:36;98420.09;;;15.52;83.87
57779;BME280;43608;49.486;9.640;2023-05-23T00:28:07;98401.66;;;15.43;83.99
57779;BME280;43608;49.486;9.640;2023-05-23T00:28:37;98419.47;;;15.42;84.32
57779;BME280;43608;49.486;9.640;2023-05-23T00:29:08;98416.75;;;15.44;84.13
57779;BME280;43608;49.486;9.640;2023-05-23T00:29:44;98436.16;;;15.50;84.23
57779;BME280;43608;49.486;9.640;2023-05-23T00:30:15;98434.44;;;15.48;84.01
57779;BME280;43608;49.486;9.640;2023-05-23T00:30:45;98423.97;;;15.40;84.07
57779;BME280;43608;49.486;9.640;2023-05-23T00:31:15;98422.34;;;15.34;84.01
57779;BME280;43608;49.486;9.640;2023-05-23T00:31:46;98439.91;;;15.43;84.03
57779;BME280;43608;49.486;9.640;2023-05-23T00:32:17;98424.16;;;15.34;84.08
57779;BME280;43608;49.486;9.640;2023-05-23T00:32:47;98412.72;;;15.29;84.06
57779;BME280;43608;49.486;9.640;2023-05-23T00:33:18;98441.81;;;15.38;83.97
57779;BME280;43608;49.486;9.640;2023-05-23T00:33:51;98421.69;;;15.26;84.02
57779;BME280;43608;49.486;9.640;2023-05-23T00:34:21;98426.94;;;15.29;84.03
57779;BME280;43608;49.486;9.640;2023-05-23T00:34:51;98436.69;;;15.30;84.18
57779;BME280;43608;49.486;9.640;2023-05-23T00:35:23;98438.50;;;15.30;84.06
57779;BME280;43608;49.486;9.640;2023-05-23T00:35:54;98439.41;;;15.29;84.35
57779;BME280;43608;49.486;9.640;2023-05-23T00:36:24;98437.72;;;15.26;84.24
57779;BME280;43608;49.486;9.640;2023-05-23T00:36:55;98439.50;;;15.26;84.09
57779;BME280;43608;49.486;9.640;2023-05-23T00:37:25;98433.31;;;15.24;84.13
57779;BME280;43608;49.486;9.640;2023-05-23T00:37:55;98431.66;;;15.19;84.35
57779;BME280;43608;49.486;9.640;2023-05-23T00:38:26;98441.38;;;15.22;84.04
57779;BME280;43608;49.486;9.640;2023-05-23T00:38:57;98435.19;;;15.20;84.24
57779;BME280;43608;49.486;9.640;2023-05-23T00:39:28;98436.13;;;15.19;84.19
57779;BME280;43608;49.486;9.640;2023-05-23T00:39:59;98422.94;;;15.13;84.32
57779;BME280;43608;49.486;9.640;2023-05-23T00:40:29;98432.66;;;15.15;84.16
57779;BME280;43608;49.486;9.640;2023-05-23T00:41:00;98420.44;;;15.07;84.20
57779;BME280;43608;49.486;9.640;2023-05-23T00:41:31;98429.19;;;15.12;84.39
57779;BME280;43608;49.486;9.640;2023-05-23T00:42:03;98435.38;;;15.14;84.62
57779;BME280;43608;49.486;9.640;2023-05-23T00:42:34;98421.44;;;15.02;84.13
57779;BME280;43608;49.486;9.640;2023-05-23T00:43:05;98416.16;;;14.99;84.62
57779;BME280;43608;49.486;9.640;2023-05-23T00:43:37;98384.72;;;14.78;84.42
57779;BME280;43608;49.486;9.640;2023-05-23T00:44:07;98434.63;;;15.09;84.67
57779;BME280;43608;49.486;9.640;2023-05-23T00:44:39;98404.78;;;14.93;84.53
57779;BME280;43608;49.486;9.640;2023-05-23T00:45:09;98434.75;;;15.04;84.52
57779;BME280;43608;49.486;9.640;2023-05-23T00:45:41;98439.97;;;15.09;84.79
57779;BME280;43608;49.486;9.640;2023-05-23T00:46:11;98439.06;;;15.08;84.77
57779;BME280;43608;49.486;9.640;2023-05-23T00:46:44;98436.41;;;15.08;84.78
57779;BME280;43608;49.486;9.640;2023-05-23T00:47:16;98435.53;;;15.08;84.75
57779;BME280;43608;49.486;9.640;2023-05-23T00:47:47;98424.16;;;14.99;84.82
57779;BME280;43608;49.486;9.640;2023-05-23T00:48:17;98431.25;;;15.00;84.96
57779;BME280;43608;49.486;9.640;2023-05-23T00:48:48;98425.88;;;15.02;84.84
57779;BME280;43608;49.486;9.640;2023-05-23T00:49:19;98436.44;;;15.07;85.00
57779;BME280;43608;49.486;9.640;2023-05-23T00:49:49;98437.34;;;15.06;85.06
57779;BME280;43608;49.486;9.640;2023-05-23T00:50:20;98432.97;;;15.03;85.11
57779;BME280;43608;49.486;9.640;2023-05-23T00:50:51;98408.34;;;14.93;85.02
57779;BME280;43608;49.486;9.640;2023-05-23T00:51:22;98433.81;;;15.05;84.89
57779;BME280;43608;49.486;9.640;2023-05-23T00:51:52;98435.59;;;15.04;84.95
57779;BME280;43608;49.486;9.640;2023-05-23T00:52:23;98436.53;;;15.03;84.86
57779;BME280;43608;49.486;9.640;2023-05-23T00:52:54;98434.75;;;15.04;85.01
57779;BME280;43608;49.486;9.640;2023-05-23T00:53:26;98425.03;;;15.01;85.41
57779;BME280;43608;49.486;9.640;2023-05-23T00:53:57;98427.69;;;15.01;85.29
57779;BME280;43608;49.486;9.640;2023-05-23T00:54:30;98429.44;;;15.02;85.23
57779;BME280;43608;49.486;9.640;2023-05-23T00:55:01;98419.03;;;14.93;85.24
57779;BME280;43608;49.486;9.640;2023-05-23T00:55:31;98433.03;;;15.01;85.22
57779;BME280;43608;49.486;9.640;2023-05-23T00:56:02;98428.66;;;14.99;85.27
57779;BME280;43608;49.486;9.640;2023-05-23T00:56:32;98433.97;;;14.99;85.31
57779;BME280;43608;49.486;9.640;2023-05-23T00:57:03;98436.69;;;14.97;85.40
57779;BME280;43608;49.486;9.640;2023-05-23T00:57:34;98427.94;;;14.92;85.55
57779;BME280;43608;49.486;9.640;2023-05-23T00:58:09;98431.41;;;14.96;85.58
57779;BME280;43608;49.486;9.640;2023-05-23T00:58:40;98423.59;;;14.88;85.45
57779;BME280;43608;49.486;9.640;2023-05-23T00:59:10;98430.56;;;14.94;85.56
57779;BME280;43608;49.486;9.640;2023-05-23T00:59:42;98408.66;;;14.81;85.40
57779;BME280;43608;49.486;9.640;2023-05-23T01:00:14;98422.88;;;14.81;85.50
57779;BME280;43608;49.486;9.640;2023-05-23T01:00:45;98432.41;;;14.90;85.58
57779;BME280;43608;49.486;9.640;2023-05-23T01:01:19;98433.34;;;14.89;85.51
57779;BME280;43608;49.486;9.640;2023-05-23T01:01:49;98429.00;;;14.85;85.59
57779;BME280;43608;49.486;9.640;2023-05-23T01:02:20;98437.00;;;14.85;85.77
57779;BME280;43608;49.486;9.640;2023-05-23T01:02:51;98435.22;;;14.85;85.52
57779;BME280;43608;49.486;9.640;2023-05-23T01:03:22;98437.88;;;14.85;85.52
57779;BME280;43608;49.486;9.640;2023-05-23T01:03:52;98435.28;;;14.82;85.50
57779;BME280;43608;49.486;9.640;2023-05-23T01:04:23;98377.44;;;14.48;85.51
57779;BME280;43608;49.486;9.640;2023-05-23T01:04:55;98418.66;;;14.73;85.53
57779;BME280;43608;49.486;9.640;2023-05-23T01:05:25;98440.72;;;14.79;85.50
57779;BME280;43608;49.486;9.640;2023-05-23T01:05:56;98428.38;;;14.75;85.68
57779;BME280;43608;49.486;9.640;2023-05-23T01:06:26;98435.47;;;14.75;85.68
57779;BME280;43608;49.486;9.640;2023-05-23T01:06:59;98436.31;;;14.77;85.58
57779;BME280;43608;49.486;9.640;2023-05-23T01:07:30;98425.81;;;14.70;85.62
57779;BME280;43608;49.486;9.640;2023-05-23T01:08:00;98435.56;;;14.72;85.51
57779;BME280;43608;49.486;9.640;2023-05-23T01:08:32;98447.09;;;14.74;85.76
57779;BME280;43608;49.486;9.640;2023-05-23T01:09:02;98426.81;;;14.66;85.58
57779;BME280;43608;49.486;9.640;2023-05-23T01:09:33;98434.72;;;14.69;85.58
57779;BME280;43608;49.486;9.640;2023-05-23T01:10:03;98418.13;;;14.57;85.68
57779;BME280;43608;49.486;9.640;2023-05-23T01:10:34;98416.34;;;14.57;85.85
57779;BME280;43608;49.486;9.640;2023-05-23T01:11:43;98429.53;;;14.63;86.07
57779;BME280;43608;49.486;9.640;2023-05-23T01:13:46;98436.69;;;14.61;86.42
57779;BME280;43608;49.486;9.640;2023-05-23T01:14:27;98444.59;;;14.66;86.39
57779;BME280;43608;49.486;9.640;2023-05-23T01:15:06;98444.66;;;14.64;86.41
57779;BME280;43608;49.486;9.640;2023-05-23T01:15:46;98440.19;;;14.63;86.67
57779;BME280;43608;49.486;9.640;2023-05-23T01:20:10;98439.47;;;14.55;87.24
57779;BME280;43608;49.486;9.640;2023-05-23T01:20:52;98440.47;;;14.51;87.20
57779;BME280;43608;49.486;9.640;2023-05-23T01:21:24;98434.22;;;14.52;87.35
57779;BME280;43608;49.486;9.640;2023-05-23T01:22:00;98439.63;;;14.50;87.43
57779;BME280;43608;49.486;9.640;2023-05-23T01:24:35;98440.59;;;14.46;87.49
57779;BME280;43608;49.486;9.640;2023-05-23T01:26:12;98440.66;;;14.43;87.63
57779;BME280;43608;49.486;9.640;2023-05-23T01:27:47;98445.16;;;14.41;87.51
57779;BME280;43608;49.486;9.640;2023-05-23T01:28:20;98448.75;;;14.40;87.55
57779;BME280;43608;49.486;9.640;2023-05-23T01:29:10;98426.81;;;14.27;87.64
57779;BME280;43608;49.486;9.640;2023-05-23T01:29:44;98446.13;;;14.38;87.65
57779;BME280;43608;49.486;9.640;2023-05-23T01:30:18;98442.56;;;14.38;87.93
57779;BME280;43608;49.486;9.640;2023-05-23T01:30:51;98443.44;;;14.38;87.76
57779;BME280;43608;49.486;9.640;2023-05-23T01:31:23;98436.44;;;14.33;88.11
57779;BME280;43608;49.486;9.640;2023-05-23T01:32:00;98439.94;;;14.36;88.24
57779;BME280;43608;49.486;9.640;2023-05-23T01:32:31;98447.88;;;14.38;88.26
57779;BME280;43608;49.486;9.640;2023-05-23T01:33:03;98436.41;;;14.36;88.29
57779;BME280;43608;49.486;9.640;2023-05-23T01:33:33;98422.34;;;14.28;88.19
57779;BME280;43608;49.486;9.640;2023-05-23T01:34:06;98421.50;;;14.27;88.43
57779;BME280;43608;49.486;9.640;2023-05-23T01:34:38;98440.81;;;14.37;88.41
57779;BME280;43608;49.486;9.640;2023-05-23T01:35:09;98431.13;;;14.34;88.32
57779;BME280;43608;49.486;9.640;2023-05-23T01:35:41;98416.25;;;14.24;88.28
57779;BME280;43608;49.486;9.640;2023-05-23T01:36:12;98442.63;;;14.35;88.37
57779;BME280;43608;49.486;9.640;2023-05-23T01:36:44;98440.81;;;14.37;88.41
57779;BME280;43608;49.486;9.640;2023-05-23T01:37:14;98437.38;;;14.32;88.42
57779;BME280;43608;49.486;9.640;2023-05-23T01:37:47;98447.03;;;14.37;88.49
57779;BME280;43608;49.486;9.640;2023-05-23T01:38:18;98421.56;;;14.24;88.35
57779;BME280;43608;49.486;9.640;2023-05-23T01:38:48;98425.97;;;14.25;88.47
57779;BME280;43608;49.486;9.640;2023-05-23T01:39:18;98428.53;;;14.30;88.60
57779;BME280;43608;49.486;9.640;2023-05-23T01:39:49;98419.78;;;14.25;88.56
57779;BME280;43608;49.486;9.640;2023-05-23T01:40:20;98448.81;;;14.37;88.54
57779;BME280;43608;49.486;9.640;2023-05-23T01:40:52;98453.22;;;14.38;88.27
57779;BME280;43608;49.486;9.640;2023-05-23T01:41:23;98451.50;;;14.37;88.55
57779;BME280;43608;49.486;9.640;2023-05-23T01:41:53;98447.06;;;14.36;88.59
57779;BME280;43608;49.486;9.640;2023-05-23T01:42:24;98430.47;;;14.23;88.65
57779;BME280;43608;49.486;9.640;2023-05-23T01:42:55;98455.88;;;14.38;88.51
57779;BME280;43608;49.486;9.640;2023-05-23T01:43:29;98438.34;;;14.28;88.66
57779;BME280;43608;49.486;9.640;2023-05-23T01:43:59;98433.03;;;14.28;88.77
57779;BME280;43608;49.486;9.640;2023-05-23T01:44:32;98451.53;;;14.34;88.79
57779;BME280;43608;49.486;9.640;2023-05-23T01:45:03;98464.78;;;14.38;88.60
57779;BME280;43608;49.486;9.640;2023-05-23T01:45:35;98447.06;;;14.36;88.67
57779;BME280;43608;49.486;9.640;2023-05-23T01:46:06;98457.66;;;14.39;88.88
57779;BME280;43608;49.486;9.640;2023-05-23T01:46:37;98437.53;;;14.26;88.82
57779;BME280;43608;49.486;9.640;2023-05-23T01:47:09;98439.22;;;14.30;88.94
57779;BME280;43608;49.486;9.640;2023-05-23T01:47:40;98455.03;;;14.37;88.98
57779;BME280;43608;49.486;9.640;2023-05-23T01:48:12;98453.16;;;14.41;88.92
57779;BME280;43608;49.486;9.640;2023-05-23T01:48:44;98448.88;;;14.34;88.77
57779;BME280;43608;49.486;9.640;2023-05-23T01:49:16;98456.78;;;14.38;88.64
57779;BME280;43608;49.486;9.640;2023-05-23T01:49:47;98448.88;;;14.34;88.78
57779;BME280;43608;49.486;9.640;2023-05-23T01:50:18;98456.78;;;14.38;89.05
57779;BME280;43608;49.486;9.640;2023-05-23T01:50:49;98460.22;;;14.42;88.84
57779;BME280;43608;49.486;9.640;2023-05-23T01:51:21;98448.84;;;14.35;88.88
57779;BME280;43608;49.486;9.640;2023-05-23T01:51:52;98464.63;;;14.45;88.75
57779;BME280;43608;49.486;9.640;2023-05-23T01:52:22;98453.16;;;14.41;88.86
57779;BME280;43608;49.486;9.640;2023-05-23T01:52:54;98465.56;;;14.44;88.71
57779;BME280;43608;49.486;9.640;2023-05-23T01:53:26;98454.88;;;14.44;88.63
57779;BME280;43608;49.486;9.640;2023-05-23T01:53:58;98449.78;;;14.34;88.50
57779;BME280;43608;49.486;9.640;2023-05-23T01:54:31;98458.47;;;14.43;88.50
57779;BME280;43608;49.486;9.640;2023-05-23T01:55:05;98455.84;;;14.41;88.66
57779;BME280;43608;49.486;9.640;2023-05-23T01:55:40;98454.94;;;14.41;88.58
57779;BME280;43608;49.486;9.640;2023-05-23T01:56:12;98454.94;;;14.41;88.69
57779;BME280;43608;49.486;9.640;2023-05-23T01:56:43;98446.97;;;14.39;88.79
57779;BME280;43608;49.486;9.640;2023-05-23T01:57:13;98444.41;;;14.36;88.88
57779;BME280;43608;49.486;9.640;2023-05-23T01:57:46;98460.19;;;14.45;88.79
57779;BME280;43608;49.486;9.640;2023-05-23T01:58:18;98457.50;;;14.45;88.80
57779;BME280;43608;49.486;9.640;2023-05-23T01:58:49;98429.44;;;14.29;88.88
57779;BME280;43608;49.486;9.640;2023-05-23T01:59:20;98456.59;;;14.46;88.95
57779;BME280;43608;49.486;9.640;2023-05-23T01:59:50;98436.44;;;14.34;88.86
57779;BME280;43608;49.486;9.640;2023-05-23T02:00:20;98460.19;;;14.45;89.05
57779;BME280;43608;49.486;9.640;2023-05-23T02:00:51;98459.28;;;14.46;89.04
57779;BME280;43608;49.486;9.640;2023-05-23T02:01:22;98465.47;;;14.47;89.13
57779;BME280;43608;49.486;9.640;2023-05-23T02:01:52;98461.03;;;14.46;89.18
57779;BME280;43608;49.486;9.640;2023-05-23T02:02:23;98446.16;;;14.37;89.23
57779;BME280;43608;49.486;9.640;2023-05-23T02:02:53;98441.72;;;14.36;89.24
57779;BME280;43608;49.486;9.640;2023-05-23T02:03:23;98442.72;;;14.32;89.33
57779;BME280;43608;49.486;9.640;2023-05-23T02:03:54;98459.28;;;14.46;89.35
57779;BME280;43608;49.486;9.640;2023-05-23T02:04:27;98410.16;;;14.17;89.29
57779;BME280;43608;49.486;9.640;2023-05-23T02:04:58;98453.16;;;14.41;89.60
57779;BME280;43608;49.486;9.640;2023-05-23T02:05:28;98459.28;;;14.46;89.53
57779;BME280;43608;49.486;9.640;2023-05-23T02:05:59;98449.66;;;14.39;89.59
57779;BME280;43608;49.486;9.640;2023-05-23T02:06:29;98449.66;;;14.39;89.59
57779;BME280;43608;49.486;9.640;2023-05-23T02:07:00;98443.41;;;14.40;89.60
57779;BME280;43608;49.486;9.640;2023-05-23T02:07:31;98454.00;;;14.43;89.79
57779;BME280;43608;49.486;9.640;2023-05-23T02:08:01;98461.91;;;14.48;89.88
57779;BME280;43608;49.486;9.640;2023-05-23T02:08:32;98459.22;;;14.48;89.80
57779;BME280;43608;49.486;9.640;2023-05-23T02:09:02;98461.00;;;14.47;89.98
57779;BME280;43608;49.486;9.640;2023-05-23T02:09:33;98449.59;;;14.41;89.78
57779;BME280;43608;49.486;9.640;2023-05-23T02:10:06;98461.00;;;14.47;90.08
57779;BME280;43608;49.486;9.640;2023-05-23T02:10:37;98462.81;;;14.47;90.03
57779;BME280;43608;49.486;9.640;2023-05-23T02:11:07;98447.84;;;14.40;90.13
57779;BME280;43608;49.486;9.640;2023-05-23T02:11:38;98446.06;;;14.40;90.06
57779;BME280;43608;49.486;9.640;2023-05-23T02:12:08;98443.50;;;14.37;90.18
57779;BME280;43608;49.486;9.640;2023-05-23T02:12:39;98468.09;;;14.48;90.18
57779;BME280;43608;49.486;9.640;2023-05-23T02:13:09;98447.84;;;14.41;90.25
57779;BME280;43608;49.486;9.640;2023-05-23T02:13:39;98459.28;;;14.46;90.23
57779;BME280;43608;49.486;9.640;2023-05-23T02:14:10;98447.88;;;14.38;90.12
57779;BME280;43608;49.486;9.640;2023-05-23T02:14:40;98467.22;;;14.48;90.37
57779;BME280;43608;49.486;9.640;2023-05-23T02:15:11;98458.41;;;14.44;90.19
57779;BME280;43608;49.486;9.640;2023-05-23T02:15:41;98440.06;;;14.32;90.39
57779;BME280;43608;49.486;9.640;2023-05-23T02:16:12;98466.41;;;14.44;90.27
57779;BME280;43608;49.486;9.640;2023-05-23T02:16:43;98448.00;;;14.33;90.60
57779;BME280;43608;49.486;9.640;2023-05-23T02:17:13;98468.13;;;14.47;90.41
57779;BME280;43608;49.486;9.640;2023-05-23T02:17:45;98442.69;;;14.33;90.48
57779;BME280;43608;49.486;9.640;2023-05-23T02:18:17;98470.81;;;14.47;90.59
57779;BME280;43608;49.486;9.640;2023-05-23T02:18:47;98462.88;;;14.44;90.67
57779;BME280;43608;49.486;9.640;2023-05-23T02:19:18;98459.28;;;14.45;90.48
57779;BME280;43608;49.486;9.640;2023-05-23T02:19:49;98454.00;;;14.43;90.72
57779;BME280;43608;49.486;9.640;2023-05-23T02:20:19;98462.75;;;14.48;90.78
57779;BME280;43608;49.486;9.640;2023-05-23T02:20:50;98461.00;;;14.47;90.73
57779;BME280;43608;49.486;9.640;2023-05-23T02:21:24;98462.00;;;14.43;90.73
57779;BME280;43608;49.486;9.640;2023-05-23T02:21:54;98461.94;;;14.45;90.82
57779;BME280;43608;49.486;9.640;2023-05-23T02:22:25;98457.50;;;14.45;90.96
57779;BME280;43608;49.486;9.640;2023-05-23T02:22:55;98466.31;;;14.49;90.84
57779;BME280;43608;49.486;9.640;2023-05-23T02:23:25;98459.41;;;14.40;91.01
57779;BME280;43608;49.486;9.640;2023-05-23T02:23:56;98455.84;;;14.40;91.12
57779;BME280;43608;49.486;9.640;2023-05-23T02:24:26;98445.22;;;14.38;91.21
57779;BME280;43608;49.486;9.640;2023-05-23T02:24:56;98466.28;;;14.50;91.14
57779;BME280;43608;49.486;9.640;2023-05-23T02:25:27;98468.94;;;14.50;91.12
57779;BME280;43608;49.486;9.640;2023-05-23T02:25:57;98470.72;;;14.51;91.13
57779;BME280;43608;49.486;9.640;2023-05-23T02:26:27;98460.06;;;14.50;91.10
57779;BME280;43608;49.486;9.640;2023-05-23T02:26:58;98461.91;;;14.48;91.27
57779;BME280;43608;49.486;9.640;2023-05-23T02:27:28;98450.50;;;14.40;90.97
57779;BME280;43608;49.486;9.640;2023-05-23T02:27:58;98468.03;;;14.51;90.97
57779;BME280;43608;49.486;9.640;2023-05-23T02:28:29;98452.22;;;14.42;91.03
57779;BME280;43608;49.486;9.640;2023-05-23T02:28:59;98467.13;;;14.51;91.16
57779;BME280;43608;49.486;9.640;2023-05-23T02:29:30;98466.31;;;14.49;91.04
57779;BME280;43608;49.486;9.640;2023-05-23T02:30:00;98466.31;;;14.49;91.08
57779;BME280;43608;49.486;9.640;2023-05-23T02:30:31;98468.91;;;14.52;90.91
57779;BME280;43608;49.486;9.640;2023-05-23T02:31:01;98454.00;;;14.43;90.96
57779;BME280;43608;49.486;9.640;2023-05-23T02:31:32;98439.97;;;14.35;91.07
57779;BME280;43608;49.486;9.640;2023-05-23T02:32:02;98468.03;;;14.51;91.19
57779;BME280;43608;49.486;9.640;2023-05-23T02:32:32;98446.13;;;14.38;91.00
57779;BME280;43608;49.486;9.640;2023-05-23T02:33:06;98468.13;;;14.47;91.22
57779;BME280;43608;49.486;9.640;2023-05-23T02:33:37;98473.38;;;14.50;91.07
57779;BME280;43608;49.486;9.640;2023-05-23T02:34:07;98464.56;;;14.48;91.13
57779;BME280;43608;49.486;9.640;2023-05-23T02:34:37;98460.13;;;14.47;90.92
57779;BME280;43608;49.486;9.640;2023-05-23T02:35:08;98465.50;;;14.45;90.90
57779;BME280;43608;49.486;9.640;2023-05-23T02:35:39;98471.63;;;14.50;90.78
57779;BME280;43608;49.486;9.640;2023-05-23T02:36:10;98455.84;;;14.41;91.06
57779;BME280;43608;49.486;9.640;2023-05-23T02:36:40;98460.22;;;14.44;90.91
57779;BME280;43608;49.486;9.640;2023-05-23T02:37:14;98465.50;;;14.45;90.78
57779;BME280;43608;49.486;9.640;2023-05-23T02:37:45;98410.25;;;14.14;90.75
57779;BME280;43608;49.486;9.640;2023-05-23T02:38:15;98471.66;;;14.49;90.94
57779;BME280;43608;49.486;9.640;2023-05-23T02:38:46;98466.41;;;14.44;90.91
57779;BME280;43608;49.486;9.640;2023-05-23T02:39:16;98473.44;;;14.48;90.97
57779;BME280;43608;49.486;9.640;2023-05-23T02:39:47;98477.00;;;14.49;90.99
57779;BME280;43608;49.486;9.640;2023-05-23T02:40:17;98473.47;;;14.47;90.88
57779;BME280;43608;49.486;9.640;2023-05-23T02:40:48;98467.28;;;14.46;90.95
57779;BME280;43608;49.486;9.640;2023-05-23T02:41:19;98476.09;;;14.48;91.11
57779;BME280;43608;49.486;9.640;2023-05-23T02:41:50;98474.31;;;14.47;91.38
57779;BME280;43608;49.486;9.640;2023-05-23T02:42:20;98459.31;;;14.43;91.13
57779;BME280;43608;49.486;9.640;2023-05-23T02:42:51;98448.88;;;14.34;91.29
57779;BME280;43608;49.486;9.640;2023-05-23T02:43:22;98475.22;;;14.48;91.09
57779;BME280;43608;49.486;9.640;2023-05-23T02:43:52;98460.22;;;14.42;91.19
57779;BME280;43608;49.486;9.640;2023-05-23T02:44:22;98460.22;;;14.42;91.42
57779;BME280;43608;49.486;9.640;2023-05-23T02:44:53;98475.28;;;14.46;91.19
57779;BME280;43608;49.486;9.640;2023-05-23T02:45:23;98476.03;;;14.51;91.22
57779;BME280;43608;49.486;9.640;2023-05-23T02:45:53;98484.03;;;14.51;91.23
57779;BME280;43608;49.486;9.640;2023-05-23T02:46:24;98480.47;;;14.51;91.22
57779;BME280;43608;49.486;9.640;2023-05-23T02:46:55;98430.47;;;14.23;91.22
57779;BME280;43608;49.486;9.640;2023-05-23T02:47:25;98469.84;;;14.49;91.29
57779;BME280;43608;49.486;9.640;2023-05-23T02:47:55;98484.81;;;14.55;91.29
57779;BME280;43608;49.486;9.640;2023-05-23T02:48:26;98463.72;;;14.46;91.31
57779;BME280;43608;49.486;9.640;2023-05-23T02:48:56;98461.94;;;14.45;91.32
57779;BME280;43608;49.486;9.640;2023-05-23T02:49:26;98484.75;;;14.58;91.36
57779;BME280;43608;49.486;9.640;2023-05-23T02:49:57;98476.81;;;14.57;91.35
57779;BME280;43608;49.486;9.640;2023-05-23T02:50:27;98469.00;;;14.49;91.31
57779;BME280;43608;49.486;9.640;2023-05-23T02:50:57;98485.63;;;14.59;91.09
57779;BME280;43608;49.486;9.640;2023-05-23T02:51:28;98482.09;;;14.58;91.00
57779;BME280;43608;49.486;9.640;2023-05-23T02:51:58;98483.91;;;14.56;91.10
57779;BME280;43608;49.486;9.640;2023-05-23T02:52:28;98487.38;;;14.60;90.97
57779;BME280;43608;49.486;9.640;2023-05-23T02:52:59;98490.06;;;14.60;90.82
57779;BME280;43608;49.486;9.640;2023-05-23T02:53:29;98484.72;;;14.60;90.89
57779;BME280;43608;49.486;9.640;2023-05-23T02:53:59;98485.63;;;14.59;90.95
57779;BME280;43608;49.486;9.640;2023-05-23T02:54:30;98478.56;;;14.56;90.90
57779;BME280;43608;49.486;9.640;2023-05-23T02:55:00;98488.25;;;14.60;91.13
57779;BME280;43608;49.486;9.640;2023-05-23T02:55:31;98482.09;;;14.58;91.12
57779;BME280;43608;49.486;9.640;2023-05-23T02:56:01;98472.53;;;14.49;91.48